Flight Track Log - Related Links

Times and Time Zones

All times are in EDT time to prevent confusion due to time zone crossing. See the TWY28 flight status page for this flight to view local times or setup timezone preferences in your user account.

Time Position Orientation Groundspeed Altitude Reporting Facility
EDT Latitude Longitude Course Direction KTS MPH feet Rate Location/Type
Sun 01:26:01 PM 33.6500 -117.8833 180° South 140 161 1,700  Level Southern California TRACON
Sun 01:27:01 PM 33.6167 -117.8833 196° South 151 174 3,500 1,686 Climbing Southern California TRACON
Sun 01:28:02 PM 33.5667 -117.9000 220° Southwest 182 209 5,100 2,083 Climbing Southern California TRACON
Sun 01:29:02 PM 33.5167 -117.9500 212° Southwest 253 291 7,700 2,687 Climbing Southern California TRACON
Sun 01:30:16 PM 33.4300 -118.0153 223° Southwest 306 352 11,100 3,000 Climbing Los Angeles Center
Sun 01:31:16 PM 33.3622 -118.0908 254° West 316 364 14,400 2,650 Climbing Los Angeles Center
Sun 01:32:16 PM 33.3397 -118.1847 288° West 316 364 16,400 1,950 Climbing Los Angeles Center
Sun 01:33:16 PM 33.3731 -118.3075 291° West 324 373 18,300 2,033 Climbing Los Angeles Center
Sun 01:34:17 PM 33.4125 -118.4328 344° North 363 418 20,500 2,350 Climbing Los Angeles Center
Sun 01:35:16 PM 33.5203 -118.4708 360° North 358 412 23,000 2,550 Climbing Los Angeles Center
Sun 01:36:17 PM 33.6497 -118.4719 North 361 415 25,600 2,550 Climbing Los Angeles Center
Sun 01:37:16 PM 33.7794 -118.4553 North 395 455 28,100 2,118 Climbing Los Angeles Center
Sun 01:38:16 PM 33.8922 -118.4533 350° North 424 488 29,800 1,548 Climbing Los Angeles Center
Sun 01:39:20 PM 34.0231 -118.4822 339° North 447 514 31,300 1,500 Climbing Los Angeles Center
Sun 01:40:28 PM 34.1742 -118.5517 337° Northwest 469 540 33,100 1,535 Climbing Los Angeles Center
Sun 01:41:29 PM 34.3000 -118.6156 338° Northwest 482 555 34,600 1,500 Climbing Los Angeles Center
Sun 01:42:28 PM 34.4281 -118.6775 337° Northwest 492 566 36,100 1,500 Climbing Los Angeles Center
Sun 01:43:29 PM 34.5500 -118.7417 338° Northwest 487 560 37,600 1,550 Climbing Los Angeles Center
Sun 01:44:28 PM 34.6861 -118.8092 333° Northwest 481 554 39,200 1,210 Climbing Los Angeles Center
Sun 01:45:28 PM 34.8056 -118.8839 328° Northwest 481 554 40,000 397 Climbing Los Angeles Center
Sun 01:46:29 PM 34.9081 -118.9608 322° Northwest 476 548 40,000  Level Los Angeles Center
Sun 01:47:28 PM 35.0142 -119.0633 321° Northwest 482 555 40,000  Level Los Angeles Center
Sun 01:48:28 PM 35.1322 -119.1817 321° Northwest 498 573 40,000  Level Los Angeles Center
Sun 01:49:29 PM 35.2381 -119.2875 322° Northwest 498 573 40,000  Level Los Angeles Center
Sun 01:50:28 PM 35.3419 -119.3883 321° Northwest 492 566 40,000  Level Los Angeles Center
Sun 01:52:48 PM 35.5753 -119.6233 322° Northwest 491 565 40,000  Level Oakland Center
Sun 01:53:48 PM 35.6786 -119.7236 322° Northwest 480 552 40,000  Level Oakland Center
Sun 01:54:48 PM 35.7817 -119.8244 320° Northwest 480 552 40,000  Level Oakland Center
Sun 01:55:48 PM 35.8872 -119.9331 320° Northwest 480 552 40,000  Level Oakland Center
Sun 01:56:48 PM 35.9903 -120.0394 321° Northwest 480 552 40,000  Level Oakland Center
Sun 01:57:48 PM 36.0975 -120.1461 321° Northwest 480 552 40,000  Level Oakland Center
Sun 01:58:48 PM 36.2025 -120.2531 319° Northwest 485 558 40,000 -350 Level Oakland Center
Sun 01:59:48 PM 36.3031 -120.3603 321° Northwest 480 552 39,300 -1,350 Descending Oakland Center
Sun 02:00:48 PM 36.4017 -120.4600 321° Northwest 474 545 37,300 -2,100 Descending Oakland Center
Sun 02:01:48 PM 36.5022 -120.5628 321° Northwest 468 539 35,100 -2,350 Descending Oakland Center
Sun 02:02:48 PM 36.6028 -120.6656 321° Northwest 468 539 32,600 -2,500 Descending Oakland Center
Sun 02:03:48 PM 36.7008 -120.7664 319° Northwest 468 539 30,100 -2,950 Descending Oakland Center
Sun 02:04:48 PM 36.8053 -120.8803 319° Northwest 463 533 26,700 -3,000 Descending Oakland Center
Sun 02:05:48 PM 36.8867 -120.9683 317° Northwest 449 517 24,100 -2,850 Descending Oakland Center
Sun 02:06:48 PM 36.9764 -121.0722 316° Northwest 443 510 21,000 -2,977 Descending Oakland Center
Sun 02:07:59 PM 37.0833 -121.2000 315° West 383 441 17,600 -2,591 Descending Northern Cal TRACON
Sun 02:09:00 PM 37.1500 -121.2833 319° Northwest 345 397 15,300 -2,130 Descending Northern Cal TRACON
Sun 02:10:48 PM 37.2572 -121.4014 318° Northwest 314 361 11,600 -1,893 Descending Oakland Center
Sun 02:11:48 PM 37.3133 -121.4644 315° West 292 336 10,000 -1,550 Descending Oakland Center
Sun 02:12:48 PM 37.3714 -121.5381 316° Northwest 286 329 8,500 -1,308 Descending Oakland Center
Sun 02:14:01 PM 37.4500 -121.6333 302° West 275 316 7,100 -627 Descending Northern Cal TRACON
Sun 02:15:02 PM 37.4833 -121.7000 307° West 261 300 7,100 -99 Level Northern Cal TRACON
Sun 02:16:02 PM 37.5333 -121.7833 313° West 266 306 6,900 -950 Descending Northern Cal TRACON
Sun 02:17:02 PM 37.5833 -121.8500 297° West 258 297 5,200 -1,250 Descending Northern Cal TRACON
Sun 02:18:02 PM 37.6167 -121.9333 302° West 247 284 4,400 -850 Descending Northern Cal TRACON
Sun 02:19:02 PM 37.6500 -122.0000 310° West 222 255 3,500 -893 Descending Northern Cal TRACON
Sun 02:20:03 PM 37.6833 -122.0500 293° West 176 203 2,600 -843 Descending Northern Cal TRACON
Sun 02:21:03 PM 37.7000 -122.1000 270° West 157 181 1,800 -800 Descending Northern Cal TRACON
Sun 02:22:03 PM 37.7000 -122.1500 270° West 141 162 1,000 -800 Descending Northern Cal TRACON

Login

Don't have an account? Register now (free) for customized features, flight alerts, and more!